Time;durP1;ratioP1;P1;durP2;ratioP2;P2;SDS_P1;SDS_P2;PMS_P1;PMS_P2;Temp;Humidity;BMP_temperature;BMP_pressure;BME280_temperature;BME280_humidity;BME280_pressure;Samples;Min_cycle;Max_cycle;Signal;HPM_P1;HPM_P2
2022/05/16 00:01:54;;;;;;;4.80;4.50;;;16.30;99.90;;;;;;5054123;28;20704;-66
2022/05/16 00:04:20;;;;;;;4.67;4.47;;;16.30;99.90;;;;;;5054299;28;20175;-66
2022/05/16 00:06:46;;;;;;;4.90;4.60;;;16.30;99.90;;;;;;5053981;28;20185;-66
2022/05/16 00:09:12;;;;;;;4.40;4.20;;;16.30;99.90;;;;;;5054210;28;20592;-66
2022/05/16 00:11:38;;;;;;;4.70;4.40;;;16.30;99.90;;;;;;5054364;28;20285;-66
2022/05/16 00:14:04;;;;;;;4.33;4.13;;;16.20;99.90;;;;;;5054027;28;20628;-66
2022/05/16 00:16:30;;;;;;;4.43;4.23;;;16.20;99.90;;;;;;5053956;28;20434;-66
2022/05/16 00:18:55;;;;;;;4.90;4.50;;;16.20;99.90;;;;;;5052161;28;20570;-66
2022/05/16 00:21:22;;;;;;;4.40;4.13;;;16.20;99.90;;;;;;5052862;28;20187;-66
2022/05/16 00:23:48;;;;;;;4.60;4.40;;;16.20;99.90;;;;;;5052933;28;20182;-66
2022/05/16 00:26:13;;;;;;;4.60;4.40;;;16.10;99.90;;;;;;5053660;28;20518;-66
2022/05/16 00:28:39;;;;;;;4.50;4.30;;;16.00;99.90;;;;;;5053810;28;20331;-66
2022/05/16 00:31:05;;;;;;;4.67;4.27;;;16.00;99.90;;;;;;5053538;28;20183;-66
2022/05/16 00:33:32;;;;;;;4.53;4.33;;;16.00;99.90;;;;;;5053768;28;20206;-66
2022/05/16 00:35:58;;;;;;;4.70;4.50;;;15.90;99.90;;;;;;5053275;28;20325;-66
2022/05/16 00:38:23;;;;;;;4.57;4.37;;;15.90;99.90;;;;;;5053542;28;20210;-66
2022/05/16 00:40:49;;;;;;;4.70;4.50;;;15.80;99.90;;;;;;5053270;28;20549;-66
2022/05/16 00:43:42;;;;;;;5.07;4.77;;;15.80;99.90;;;;;;5053206;28;20230;-66
2022/05/16 00:46:08;;;;;;;4.60;4.40;;;15.80;99.90;;;;;;5037726;28;20590;-66
2022/05/16 00:48:34;;;;;;;4.90;4.70;;;15.80;99.90;;;;;;5057473;28;20200;-66
2022/05/16 00:51:01;;;;;;;5.00;4.70;;;15.90;99.90;;;;;;5072145;28;20186;-66
2022/05/16 00:53:26;;;;;;;4.77;4.57;;;16.00;99.90;;;;;;5070495;28;20198;-66
2022/05/16 00:55:52;;;;;;;4.83;4.43;;;16.00;99.90;;;;;;5052754;28;20237;-66
2022/05/16 00:58:19;;;;;;;4.37;4.17;;;16.00;99.90;;;;;;5051978;28;20763;-66
2022/05/16 01:00:48;;;;;;;5.13;4.83;;;16.10;99.90;;;;;;5053087;28;20171;-66
2022/05/16 01:06:06;;;;;;;4.37;4.17;;;16.20;99.90;;;;;;5053347;28;20205;-66
2022/05/16 01:08:34;;;;;;;4.80;4.60;;;16.20;99.90;;;;;;5053389;28;20650;-66
2022/05/16 01:11:07;;;;;;;4.40;4.20;;;16.20;99.90;;;;;;5053192;28;20646;-66
2022/05/16 01:13:33;;;;;;;4.60;4.40;;;16.20;99.90;;;;;;5052885;28;20694;-66
2022/05/16 01:16:00;;;;;;;4.70;4.40;;;16.20;99.90;;;;;;5052792;28;20175;-66
2022/05/16 01:18:27;;;;;;;4.37;4.17;;;16.20;99.90;;;;;;5052531;28;20290;-66
2022/05/16 01:21:26;;;;;;;4.53;4.30;;;16.10;99.90;;;;;;5051620;28;20261;-66
2022/05/16 01:24:14;;;;;;;4.60;4.40;;;16.00;99.90;;;;;;5052638;28;20183;-66
2022/05/16 01:26:41;;;;;;;4.83;4.53;;;16.00;99.90;;;;;;5052339;28;20181;-66
2022/05/16 01:29:07;;;;;;;4.40;4.20;;;15.90;99.90;;;;;;5052574;28;20206;-66
2022/05/16 01:31:33;;;;;;;5.33;5.03;;;15.90;99.90;;;;;;5051213;28;20252;-66
2022/05/16 01:33:59;;;;;;;4.87;4.57;;;15.90;99.90;;;;;;5052492;28;20202;-66
2022/05/16 01:36:25;;;;;;;4.63;4.37;;;15.90;99.90;;;;;;5052147;28;20653;-66
2022/05/16 01:38:51;;;;;;;4.80;4.60;;;15.90;99.90;;;;;;5051812;28;20691;-66
2022/05/16 01:41:23;;;;;;;5.10;4.90;;;15.90;99.90;;;;;;5052084;28;20265;-66
2022/05/16 01:43:55;;;;;;;4.53;4.23;;;16.00;99.90;;;;;;5052062;28;20229;-66
2022/05/16 01:46:32;;;;;;;4.90;4.70;;;16.00;99.90;;;;;;5052133;28;20171;-66
2022/05/16 01:48:58;;;;;;;4.80;4.60;;;16.10;99.90;;;;;;5052248;28;20521;-66
2022/05/16 01:51:24;;;;;;;4.80;4.60;;;16.10;99.90;;;;;;5052204;28;20266;-66
2022/05/16 01:53:50;;;;;;;4.73;4.53;;;16.10;99.90;;;;;;5050855;28;20257;-66
2022/05/16 01:56:16;;;;;;;4.50;4.30;;;16.10;99.90;;;;;;5052176;28;20266;-66
2022/05/16 01:58:41;;;;;;;4.60;4.40;;;16.10;99.90;;;;;;5052054;28;20206;-66
2022/05/16 02:01:08;;;;;;;4.30;4.10;;;16.10;99.90;;;;;;5051911;28;20209;-66
2022/05/16 02:03:41;;;;;;;5.40;5.10;;;16.10;99.90;;;;;;5050685;28;20195;-66
2022/05/16 02:06:07;;;;;;;4.77;4.57;;;16.10;99.90;;;;;;5051570;28;20729;-66
2022/05/16 02:08:33;;;;;;;5.03;4.70;;;16.10;99.90;;;;;;5052112;28;20186;-66
2022/05/16 02:11:01;;;;;;;4.63;4.40;;;16.10;99.90;;;;;;5051815;28;20271;-66
2022/05/16 02:13:26;;;;;;;4.93;4.60;;;16.00;99.90;;;;;;5051645;28;20568;-66
2022/05/16 02:15:52;;;;;;;4.77;4.57;;;16.00;99.90;;;;;;5051654;28;20224;-66
2022/05/16 02:18:18;;;;;;;4.60;4.40;;;15.90;99.90;;;;;;5051647;28;20248;-66
2022/05/16 02:20:43;;;;;;;5.30;4.90;;;15.90;99.90;;;;;;5051716;28;20174;-66
2022/05/16 02:25:57;;;;;;;4.87;4.67;;;15.80;99.90;;;;;;5032249;28;20191;-66
2022/05/16 02:28:23;;;;;;;4.83;4.53;;;15.70;99.90;;;;;;5049330;28;20186;-66
2022/05/16 02:30:50;;;;;;;4.90;4.60;;;15.70;99.90;;;;;;5051598;28;20258;-66
2022/05/16 02:33:16;;;;;;;5.27;4.97;;;15.60;99.90;;;;;;5049907;28;20564;-66
2022/05/16 02:35:43;;;;;;;4.90;4.60;;;15.60;99.90;;;;;;5050852;28;20194;-66
2022/05/16 02:38:09;;;;;;;4.77;4.50;;;15.60;99.90;;;;;;5051472;28;20233;-66
2022/05/16 02:40:36;;;;;;;4.60;4.40;;;15.50;99.90;;;;;;5051411;28;20182;-66
2022/05/16 02:43:03;;;;;;;4.73;4.53;;;15.50;99.90;;;;;;5051170;28;20214;-66
2022/05/16 02:45:30;;;;;;;5.13;4.83;;;15.40;99.90;;;;;;5051078;28;20175;-66
2022/05/16 02:47:57;;;;;;;4.70;4.50;;;15.40;99.90;;;;;;5051551;28;20170;-66
2022/05/16 02:50:23;;;;;;;5.47;5.17;;;15.30;99.90;;;;;;5050897;28;20183;-66
2022/05/16 02:52:50;;;;;;;4.80;4.50;;;15.30;99.90;;;;;;5050491;28;20198;-66
2022/05/16 02:55:15;;;;;;;5.00;4.80;;;15.20;99.90;;;;;;5050909;28;20731;-66
2022/05/16 02:57:41;;;;;;;4.60;4.40;;;15.20;99.90;;;;;;5051214;28;20334;-66
2022/05/16 03:00:08;;;;;;;5.23;4.90;;;15.30;99.90;;;;;;5051112;28;20261;-66
2022/05/16 03:02:35;;;;;;;5.00;4.70;;;15.30;99.90;;;;;;5051181;28;20201;-66
2022/05/16 03:05:00;;;;;;;5.10;4.80;;;15.30;99.90;;;;;;5050862;28;20794;-66
2022/05/16 03:07:26;;;;;;;5.23;5.00;;;15.40;99.90;;;;;;5051138;28;20163;-66
2022/05/16 03:09:51;;;;;;;6.00;5.60;;;15.30;99.90;;;;;;5051223;28;20182;-66
2022/05/16 03:12:17;;;;;;;5.00;4.60;;;15.30;99.90;;;;;;5050967;28;20561;-66
2022/05/16 03:14:43;;;;;;;4.40;4.20;;;15.20;99.90;;;;;;5051168;28;20191;-66
2022/05/16 03:17:08;;;;;;;4.50;4.23;;;15.20;99.90;;;;;;5051036;28;20600;-66
2022/05/16 03:19:35;;;;;;;4.97;4.73;;;15.30;99.90;;;;;;5050748;28;20210;-66
2022/05/16 03:22:03;;;;;;;5.00;4.70;;;15.30;99.90;;;;;;5050902;28;20198;-66
2022/05/16 03:24:28;;;;;;;4.90;4.70;;;15.30;99.90;;;;;;5050950;28;20186;-66
2022/05/16 03:26:54;;;;;;;5.20;5.00;;;15.30;99.90;;;;;;5050849;28;20543;-66
2022/05/16 03:29:19;;;;;;;5.37;5.10;;;15.30;99.90;;;;;;5050792;28;20183;-66
2022/05/16 03:31:45;;;;;;;4.80;4.60;;;15.30;99.90;;;;;;5050868;28;20206;-66
2022/05/16 03:34:11;;;;;;;4.63;4.43;;;15.30;99.90;;;;;;5050764;28;20640;-66
2022/05/16 03:36:38;;;;;;;5.40;5.00;;;15.40;99.90;;;;;;5050776;28;20409;-66
2022/05/16 03:41:50;;;;;;;4.43;4.23;;;15.50;99.90;;;;;;5051763;28;20294;-66
2022/05/16 03:44:16;;;;;;;4.73;4.53;;;15.50;99.90;;;;;;5050738;28;20189;-66
2022/05/16 03:46:42;;;;;;;4.93;4.63;;;15.50;99.90;;;;;;5050336;28;20265;-66
2022/05/16 03:49:09;;;;;;;4.83;4.63;;;15.50;99.90;;;;;;5049425;28;20182;-66
2022/05/16 03:51:35;;;;;;;5.00;4.80;;;15.60;99.90;;;;;;5049666;28;20205;-66
2022/05/16 03:54:01;;;;;;;4.93;4.67;;;15.60;99.90;;;;;;5050640;28;20270;-66
2022/05/16 03:56:28;;;;;;;5.00;4.70;;;15.60;99.90;;;;;;5050319;28;20258;-66
2022/05/16 03:58:55;;;;;;;5.07;4.77;;;15.60;99.90;;;;;;5050609;28;20236;-66
2022/05/16 04:01:22;;;;;;;4.73;4.53;;;15.60;99.90;;;;;;5050579;28;20525;-66
2022/05/16 04:03:48;;;;;;;5.20;4.90;;;15.70;99.90;;;;;;5053274;28;20183;-65
2022/05/16 04:06:14;;;;;;;4.83;4.63;;;15.70;99.90;;;;;;5053920;28;20175;-66
2022/05/16 04:08:42;;;;;;;4.73;4.53;;;15.70;99.90;;;;;;5053384;28;20187;-65
2022/05/16 04:11:08;;;;;;;5.20;4.90;;;15.80;99.90;;;;;;5054289;28;20240;-66
2022/05/16 04:13:35;;;;;;;4.97;4.67;;;15.90;99.90;;;;;;5054058;28;20207;-66
2022/05/16 04:16:00;;;;;;;4.57;4.37;;;16.00;99.90;;;;;;5053634;28;20695;-67
2022/05/16 04:18:26;;;;;;;5.00;4.70;;;16.10;99.90;;;;;;5054021;28;20202;-66
2022/05/16 04:20:52;;;;;;;5.93;5.10;;;16.20;99.90;;;;;;5052627;28;20178;-66
2022/05/16 04:23:18;;;;;;;5.50;5.20;;;16.30;99.90;;;;;;5053808;28;20217;-66
2022/05/16 04:25:44;;;;;;;5.40;5.00;;;16.40;99.90;;;;;;5053472;28;20187;-66
2022/05/16 04:28:10;;;;;;;4.90;4.60;;;16.50;99.90;;;;;;5054007;28;20663;-66
2022/05/16 04:30:38;;;;;;;4.40;4.20;;;16.60;99.90;;;;;;5053688;28;20640;-66
2022/05/16 04:33:04;;;;;;;4.73;4.53;;;16.70;99.90;;;;;;5053407;28;20203;-66
2022/05/16 04:35:30;;;;;;;4.60;4.30;;;16.80;99.90;;;;;;5053163;28;20265;-66
2022/05/16 04:37:55;;;;;;;4.73;4.53;;;16.90;99.90;;;;;;5053800;28;20262;-66
2022/05/16 04:40:21;;;;;;;4.50;4.20;;;17.00;99.90;;;;;;5053688;28;20183;-66
2022/05/16 04:42:48;;;;;;;5.20;4.90;;;17.10;99.90;;;;;;5053669;28;20684;-66
2022/05/16 04:45:15;;;;;;;4.97;4.70;;;17.20;99.90;;;;;;5052826;28;20179;-67
2022/05/16 04:47:42;;;;;;;4.50;4.30;;;17.40;99.90;;;;;;5053454;28;20179;-67
2022/05/16 04:50:09;;;;;;;5.30;4.90;;;17.60;99.90;;;;;;5062947;28;20218;-66
2022/05/16 04:52:35;;;;;;;4.90;4.57;;;17.80;99.90;;;;;;5073670;28;20225;-67
2022/05/16 04:55:01;;;;;;;4.90;4.60;;;17.90;99.90;;;;;;5065333;28;20218;-67
2022/05/16 04:57:27;;;;;;;5.03;4.77;;;18.00;99.90;;;;;;5053291;28;20609;-66
2022/05/16 04:59:52;;;;;;;4.57;4.37;;;18.10;99.90;;;;;;5053072;28;20215;-66
2022/05/16 05:02:18;;;;;;;4.30;4.10;;;18.10;99.90;;;;;;5052880;28;20248;-66
2022/05/16 05:04:45;;;;;;;4.33;3.93;;;18.30;99.90;;;;;;5052894;28;20171;-67
2022/05/16 05:07:12;;;;;;;3.90;3.70;;;18.40;99.90;;;;;;5052880;28;20182;-67
2022/05/16 05:15:09;;;;;;;4.47;4.17;;;18.60;99.90;;;;;;5051750;28;20189;-66
2022/05/16 05:17:35;;;;;;;4.27;4.07;;;18.70;99.90;;;;;;5053158;28;20707;-66
2022/05/16 05:20:02;;;;;;;4.73;4.43;;;18.70;99.90;;;;;;5052555;28;20211;-66
2022/05/16 05:22:28;;;;;;;4.50;4.10;;;18.80;99.90;;;;;;5052940;28;20202;-66
2022/05/16 05:24:54;;;;;;;4.53;4.20;;;18.90;99.90;;;;;;5052360;28;20185;-65
2022/05/16 05:27:20;;;;;;;4.37;4.17;;;18.90;99.90;;;;;;5052552;28;20179;-65
2022/05/16 05:29:47;;;;;;;4.13;3.93;;;19.00;99.90;;;;;;5052826;28;20547;-67
2022/05/16 05:32:13;;;;;;;4.43;4.23;;;19.00;99.90;;;;;;5052337;28;20194;-66
2022/05/16 05:34:40;;;;;;;4.23;4.03;;;19.00;99.90;;;;;;5052375;28;20194;-66
2022/05/16 05:37:05;;;;;;;4.97;4.77;;;19.00;99.90;;;;;;5052308;28;20671;-66
2022/05/16 05:39:31;;;;;;;4.20;4.00;;;19.00;99.90;;;;;;5052481;28;20214;-67
2022/05/16 05:41:58;;;;;;;4.13;3.93;;;19.10;99.90;;;;;;5051856;28;20215;-66
2022/05/16 05:44:24;;;;;;;3.90;3.60;;;19.20;99.90;;;;;;5051213;28;20167;-66
2022/05/16 05:46:49;;;;;;;4.30;4.10;;;19.20;99.90;;;;;;5050910;28;20175;-66
2022/05/16 05:49:15;;;;;;;7.17;4.93;;;19.20;99.90;;;;;;5051253;28;20190;-67
2022/05/16 05:51:41;;;;;;;4.80;4.50;;;19.10;99.90;;;;;;5051612;28;20289;-67
2022/05/16 05:54:07;;;;;;;4.67;4.33;;;19.10;99.90;;;;;;5050269;28;20190;-66
2022/05/16 05:56:33;;;;;;;4.13;3.87;;;19.10;99.90;;;;;;5051027;28;20182;-66
2022/05/16 05:59:00;;;;;;;4.20;4.00;;;19.20;99.90;;;;;;5048539;28;20241;-66
2022/05/16 06:01:26;;;;;;;4.80;4.43;;;19.20;99.90;;;;;;5050865;28;20250;-66
2022/05/16 06:03:52;;;;;;;4.60;4.40;;;19.20;99.90;;;;;;5050668;28;20225;-66
2022/05/16 06:06:18;;;;;;;5.00;4.80;;;19.30;99.90;;;;;;5051183;28;20651;-67
2022/05/16 06:08:44;;;;;;;4.57;4.27;;;19.30;99.90;;;;;;5050556;28;20182;-66
2022/05/16 06:11:09;;;;;;;5.47;5.17;;;19.40;99.90;;;;;;5049166;28;20191;-66
2022/05/16 06:13:35;;;;;;;4.90;4.50;;;19.40;99.90;;;;;;5048334;28;20210;-67
2022/05/16 06:16:01;;;;;;;4.80;4.53;;;19.40;99.90;;;;;;5050116;28;20191;-66
2022/05/16 06:18:26;;;;;;;4.93;4.53;;;19.30;99.90;;;;;;5050972;28;20199;-66
2022/05/16 06:20:52;;;;;;;5.20;4.90;;;19.30;99.90;;;;;;5050444;28;20278;-67
2022/05/16 06:23:18;;;;;;;4.27;4.07;;;19.30;99.90;;;;;;5050588;28;20225;-66
2022/05/16 06:25:44;;;;;;;4.13;3.93;;;19.30;99.90;;;;;;5050213;28;20694;-66
2022/05/16 06:28:16;;;;;;;4.27;4.07;;;19.40;99.90;;;;;;5050799;28;20209;-66
2022/05/16 06:30:44;;;;;;;5.50;5.00;;;19.40;99.90;;;;;;5049680;28;20194;-67
2022/05/16 06:33:11;;;;;;;4.70;4.50;;;19.40;99.90;;;;;;5050351;28;20565;-66
2022/05/16 06:35:37;;;;;;;4.67;4.47;;;19.40;99.90;;;;;;5050224;28;20589;-65
2022/05/16 06:38:08;;;;;;;4.97;4.70;;;19.40;99.90;;;;;;5050037;28;20297;-67
2022/05/16 06:40:34;;;;;;;4.90;4.60;;;19.50;99.90;;;;;;5050511;28;20214;-66
2022/05/16 06:43:00;;;;;;;5.00;4.80;;;19.60;99.90;;;;;;5012457;28;1106850;-66
2022/05/16 06:45:25;;;;;;;4.83;4.50;;;19.60;99.90;;;;;;5050922;28;20182;-66
2022/05/16 06:47:51;;;;;;;5.63;5.17;;;19.60;99.90;;;;;;5051040;28;20240;-66
2022/05/16 06:50:16;;;;;;;4.50;4.20;;;19.60;99.90;;;;;;5051113;28;20198;-66
2022/05/16 06:52:43;;;;;;;4.63;4.43;;;19.60;99.90;;;;;;5051113;28;20214;-66
2022/05/16 06:55:10;;;;;;;4.90;4.70;;;19.60;99.90;;;;;;5050535;28;20264;-66
2022/05/16 06:57:37;;;;;;;4.67;4.47;;;19.70;99.90;;;;;;5051342;28;20193;-66
2022/05/16 07:00:04;;;;;;;5.00;4.80;;;19.80;99.90;;;;;;5051063;28;20284;-66
2022/05/16 07:02:30;;;;;;;5.00;4.70;;;19.90;99.90;;;;;;5049535;28;20723;-66
2022/05/16 07:04:57;;;;;;;4.23;4.03;;;19.90;99.90;;;;;;5050610;28;20183;-66
2022/05/16 07:07:23;;;;;;;4.40;4.10;;;19.90;99.90;;;;;;5049556;28;20228;-66
2022/05/16 07:09:48;;;;;;;4.90;4.60;;;19.90;99.90;;;;;;5048607;28;20178;-66
2022/05/16 07:12:14;;;;;;;4.20;4.00;;;19.90;99.90;;;;;;5050737;28;20206;-66
2022/05/16 07:14:40;;;;;;;4.47;4.17;;;19.80;99.90;;;;;;5049102;28;20664;-66
2022/05/16 07:17:06;;;;;;;4.70;4.50;;;19.70;99.90;;;;;;5050727;28;20648;-66
2022/05/16 07:19:34;;;;;;;4.90;4.60;;;19.70;99.90;;;;;;5050524;28;20691;-65
2022/05/16 07:22:01;;;;;;;4.90;4.60;;;19.60;99.90;;;;;;5050679;28;20281;-66
2022/05/16 07:24:27;;;;;;;4.27;4.03;;;19.40;99.90;;;;;;5050875;28;20294;-66
2022/05/16 07:29:36;;;;;;;4.57;4.27;;;19.00;99.90;;;;;;5051145;28;20193;-66
2022/05/16 07:32:02;;;;;;;4.00;3.80;;;18.80;99.90;;;;;;5050805;28;20191;-66
2022/05/16 07:34:28;;;;;;;4.97;4.67;;;18.60;99.90;;;;;;5050987;28;20629;-66
2022/05/16 07:36:53;;;;;;;4.73;4.43;;;18.40;99.90;;;;;;5050669;28;20178;-66
2022/05/16 07:39:19;;;;;;;4.67;4.47;;;18.40;99.90;;;;;;5054082;28;20191;-66
2022/05/16 07:41:45;;;;;;;5.17;4.67;;;18.50;99.90;;;;;;5053133;28;20707;-66
2022/05/16 07:44:11;;;;;;;4.90;4.50;;;18.60;99.90;;;;;;5054087;28;20183;-66
2022/05/16 07:46:36;;;;;;;4.60;4.30;;;18.80;99.90;;;;;;5054172;28;20187;-66
2022/05/16 07:49:02;;;;;;;4.27;4.07;;;19.00;99.90;;;;;;5053506;28;20584;-66
2022/05/16 07:51:28;;;;;;;4.87;4.67;;;19.20;99.90;;;;;;5054420;28;20222;-66
2022/05/16 07:53:55;;;;;;;4.40;4.10;;;19.50;99.90;;;;;;5054057;28;20233;-66
2022/05/16 07:56:21;;;;;;;4.13;3.87;;;19.60;99.90;;;;;;5054042;28;20261;-66
2022/05/16 07:58:46;;;;;;;4.57;4.27;;;19.70;99.90;;;;;;5053819;28;20285;-66
2022/05/16 08:01:12;;;;;;;4.77;4.47;;;19.80;99.90;;;;;;5054190;28;20181;-66
2022/05/16 08:03:38;;;;;;;4.97;4.67;;;20.00;99.90;;;;;;5054112;28;20552;-66
2022/05/16 08:06:04;;;;;;;4.53;4.23;;;20.10;99.90;;;;;;5053443;28;20496;-67
2022/05/16 08:11:14;;;;;;;5.00;4.70;;;20.40;99.90;;;;;;5053371;28;20197;-66
2022/05/16 08:13:41;;;;;;;5.37;5.07;;;20.60;99.90;;;;;;5053718;28;20183;-66
2022/05/16 08:16:07;;;;;;;4.47;4.18;;;20.70;99.90;;;;;;5053387;28;20271;-66
2022/05/16 08:18:33;;;;;;;5.88;5.57;;;20.80;99.90;;;;;;5053885;28;20202;-66
2022/05/16 08:20:59;;;;;;;4.80;4.50;;;20.80;99.90;;;;;;5053564;28;20186;-66
2022/05/16 08:23:28;;;;;;;4.57;4.27;;;20.90;99.90;;;;;;5053505;28;20206;-66
2022/05/16 08:25:55;;;;;;;4.73;4.33;;;20.90;99.90;;;;;;5053515;28;20182;-66
2022/05/16 08:28:22;;;;;;;4.45;4.15;;;20.90;99.90;;;;;;5053831;28;20426;-66
2022/05/16 08:30:48;;;;;;;4.70;4.40;;;21.00;99.90;;;;;;5053537;28;20206;-66
2022/05/16 08:33:14;;;;;;;4.90;4.60;;;21.10;99.90;;;;;;5053503;28;20206;-66
2022/05/16 08:35:39;;;;;;;4.60;4.30;;;21.20;99.90;;;;;;5053060;28;20197;-66
2022/05/16 08:41:06;;;;;;;4.60;4.40;;;21.90;99.90;;;;;;5053669;28;20260;-66
2022/05/16 08:44:16;;;;;;;3.88;3.67;;;22.40;99.90;;;;;;5051702;28;20306;-66
2022/05/16 08:46:55;;;;;;;3.90;3.70;;;22.70;99.90;;;;;;5039586;28;20397;-66
2022/05/16 08:49:36;;;;;;;5.03;4.72;;;23.30;99.90;;;;;;5052063;28;20259;-66
2022/05/16 08:52:10;;;;;;;4.32;3.92;;;24.20;99.90;;;;;;5053012;28;20206;-66
2022/05/16 08:54:45;;;;;;;3.72;3.53;;;24.70;99.90;;;;;;5033443;28;20593;-66
2022/05/16 08:57:14;;;;;;;4.32;4.05;;;25.00;99.90;;;;;;5035127;28;20197;-66
2022/05/16 08:59:44;;;;;;;3.70;3.40;;;25.20;99.90;;;;;;5053013;28;20318;-66
2022/05/16 09:02:10;;;;;;;3.58;3.38;;;25.60;99.90;;;;;;5052605;28;20195;-65
2022/05/16 09:05:12;;;;;;;3.72;3.53;;;26.20;99.90;;;;;;5053057;28;20217;-66
2022/05/16 09:07:45;;;;;;;3.55;3.35;;;26.70;99.90;;;;;;5039685;28;20265;-66
2022/05/16 09:10:31;;;;;;;3.15;3.00;;;27.40;99.90;;;;;;5052957;28;20537;-66
2022/05/16 09:13:15;;;;;;;3.53;3.35;;;28.30;99.90;;;;;;5052820;28;20286;-66
2022/05/16 09:15:49;;;;;;;3.70;3.40;;;29.00;99.90;;;;;;5052764;28;20757;-66
2022/05/16 09:18:46;;;;;;;3.05;2.85;;;29.40;99.90;;;;;;5052675;28;20202;-66
2022/05/16 09:21:25;;;;;;;3.10;2.90;;;29.90;99.90;;;;;;5052411;28;20512;-66
2022/05/16 09:24:15;;;;;;;3.42;3.22;;;29.80;99.90;;;;;;5047855;28;20671;-66
2022/05/16 09:26:56;;;;;;;2.85;2.65;;;29.60;99.90;;;;;;5052577;28;20202;-67
2022/05/16 09:29:31;;;;;;;3.70;3.40;;;29.60;99.90;;;;;;5052896;28;20183;-67
2022/05/16 09:32:04;;;;;;;3.67;2.90;;;29.60;99.90;;;;;;5052210;28;20234;-67
2022/05/16 09:34:31;;;;;;;3.30;3.10;;;29.70;99.90;;;;;;5051390;28;20244;-67
2022/05/16 09:36:57;;;;;;;2.90;2.70;;;29.80;99.90;;;;;;5052116;28;20183;-67
2022/05/16 09:39:35;;;;;;;2.90;2.80;;;30.10;99.90;;;;;;5052317;28;20264;-67
2022/05/16 09:42:22;;;;;;;2.50;2.40;;;30.30;99.90;;;;;;5052550;28;20557;-67
2022/05/16 09:45:04;;;;;;;2.70;2.60;;;30.80;99.90;;;;;;5032292;28;20998;-67
2022/05/16 09:47:29;;;;;;;3.03;2.83;;;31.40;99.90;;;;;;5052191;28;20179;-66
2022/05/16 09:50:27;;;;;;;2.78;2.58;;;31.80;99.90;;;;;;5052226;28;20198;-68
2022/05/16 09:53:02;;;;;;;3.22;2.92;;;32.20;99.90;;;;;;5023287;28;20214;-68
2022/05/16 09:55:42;;;;;;;3.47;3.28;;;32.40;99.90;;;;;;5050792;28;20228;-66
2022/05/16 09:58:16;;;;;;;2.92;2.72;;;32.60;99.90;;;;;;5051892;28;20261;-67
2022/05/16 10:00:57;;;;;;;2.80;2.60;;;33.10;99.90;;;;;;5051649;28;20185;-67
2022/05/16 10:03:29;;;;;;;2.50;2.40;;;32.90;99.90;;;;;;5051727;28;20186;-67
2022/05/16 10:05:57;;;;;;;2.72;2.53;;;32.70;99.90;;;;;;5051945;28;20659;-67
2022/05/16 10:08:37;;;;;;;2.85;2.40;;;33.00;99.90;;;;;;5051577;28;20564;-67
2022/05/16 10:11:07;;;;;;;2.30;2.20;;;33.50;99.90;;;;;;5052106;28;20170;-67
2022/05/16 10:13:33;;;;;;;2.47;2.17;;;34.20;99.90;;;;;;5051740;28;20198;-67
2022/05/16 10:16:02;;;;;;;2.30;2.20;;;34.90;99.90;;;;;;5050471;28;20181;-67
2022/05/16 10:18:29;;;;;;;2.55;2.35;;;35.60;99.90;;;;;;5050180;28;20233;-67
2022/05/16 10:21:09;;;;;;;2.40;2.30;;;35.60;99.90;;;;;;5051984;28;20170;-67
2022/05/16 10:23:41;;;;;;;2.22;2.13;;;35.90;99.90;;;;;;5051501;28;20273;-70
2022/05/16 10:26:12;;;;;;;2.40;2.20;;;36.20;99.90;;;;;;5051658;28;20179;-67
2022/05/16 10:28:51;;;;;;;2.15;2.05;;;36.20;99.90;;;;;;5051716;28;20179;-67
2022/05/16 10:34:52;;;;;;;2.33;2.00;;;36.80;99.90;;;;;;5051187;28;20185;-68
2022/05/16 10:37:19;;;;;;;2.55;2.40;;;37.10;99.90;;;;;;5051615;28;20273;-67
2022/05/16 10:39:51;;;;;;;2.50;2.30;;;37.10;99.90;;;;;;5051235;28;20597;-68
2022/05/16 10:42:21;;;;;;;2.03;1.92;;;37.30;99.90;;;;;;5051446;28;20206;-67
2022/05/16 10:44:59;;;;;;;2.25;2.05;;;37.20;99.50;;;;;;5049870;28;20182;-67
2022/05/16 10:47:33;;;;;;;3.03;2.83;;;37.00;99.90;;;;;;5051350;28;20178;-66
2022/05/16 10:50:14;;;;;;;2.95;2.40;;;36.70;99.30;;;;;;5051468;28;20240;-68
2022/05/16 10:53:10;;;;;;;2.53;2.40;;;36.10;98.10;;;;;;5051305;28;20676;-67
2022/05/16 10:56:10;;;;;;;2.50;2.40;;;35.20;98.00;;;;;;5050805;28;20236;-66
2022/05/16 10:58:53;;;;;;;2.95;2.72;;;34.20;99.90;;;;;;5031551;28;20221;-68
2022/05/16 11:01:38;;;;;;;2.92;2.72;;;33.70;99.90;;;;;;5051425;28;20175;-67
2022/05/16 11:04:32;;;;;;;3.28;3.10;;;33.10;99.90;;;;;;5051148;28;20178;-67
2022/05/16 11:07:30;;;;;;;3.15;2.95;;;32.60;99.90;;;;;;5051036;28;20175;-67
2022/05/16 11:10:21;;;;;;;3.30;3.10;;;32.10;99.90;;;;;;5050751;28;20648;-67
2022/05/16 11:13:05;;;;;;;3.13;2.90;;;31.70;99.90;;;;;;5052079;28;20210;-68
2022/05/16 11:15:57;;;;;;;3.17;2.97;;;31.60;99.90;;;;;;5053565;28;20707;-67
2022/05/16 11:18:41;;;;;;;3.63;2.90;;;31.30;99.90;;;;;;5043822;28;20209;-67
2022/05/16 11:21:30;;;;;;;3.92;3.72;;;30.80;99.90;;;;;;5041714;28;20166;-68
2022/05/16 11:24:19;;;;;;;3.95;3.65;;;30.00;99.90;;;;;;5054864;28;20232;-66
2022/05/16 11:27:37;;;;;;;3.45;3.25;;;29.10;99.90;;;;;;5054571;28;20266;-67
2022/05/16 11:30:44;;;;;;;4.20;4.00;;;28.50;99.90;;;;;;5020020;28;20266;-66
2022/05/16 11:33:25;;;;;;;4.30;4.10;;;27.30;99.90;;;;;;5021635;28;20209;-67
2022/05/16 11:35:55;;;;;;;4.18;3.97;;;26.10;99.90;;;;;;5054553;28;20186;-66
2022/05/16 11:38:28;;;;;;;4.82;4.50;;;25.40;99.90;;;;;;5054606;28;20203;-67
2022/05/16 11:40:56;;;;;;;4.22;4.03;;;24.90;99.90;;;;;;5054675;28;20178;-67
2022/05/16 11:43:25;;;;;;;5.22;4.55;;;24.60;99.90;;;;;;5054051;28;20210;-67
2022/05/16 11:46:22;;;;;;;4.40;4.20;;;24.40;99.90;;;;;;5054190;28;20221;-66
2022/05/16 11:48:51;;;;;;;4.78;4.47;;;24.40;99.90;;;;;;5046415;28;20660;-68
2022/05/16 11:51:22;;;;;;;4.70;4.40;;;24.50;99.90;;;;;;5054506;28;20265;-67
2022/05/16 11:53:57;;;;;;;4.97;4.57;;;24.60;99.90;;;;;;5053969;28;20183;-67
2022/05/16 12:02:27;;;;;;;4.85;4.57;;;25.40;99.90;;;;;;5053447;28;20268;-67
2022/05/16 12:05:07;;;;;;;4.15;3.95;;;25.50;99.90;;;;;;5042811;28;20187;-66
2022/05/16 12:07:47;;;;;;;6.32;4.60;;;25.60;99.90;;;;;;5052987;28;20166;-66
2022/05/16 12:10:25;;;;;;;4.30;3.90;;;25.70;99.90;;;;;;5038159;28;20258;-66
2022/05/16 12:13:23;;;;;;;4.45;4.15;;;25.70;99.90;;;;;;5053808;28;20194;-67
2022/05/16 12:16:11;;;;;;;3.90;3.63;;;25.90;99.90;;;;;;5053289;28;20549;-66
2022/05/16 12:18:39;;;;;;;5.10;4.80;;;26.10;99.90;;;;;;5033666;28;20207;-67
2022/05/16 12:21:12;;;;;;;4.25;4.05;;;26.20;99.90;;;;;;5052319;28;20190;-67
2022/05/16 12:23:44;;;;;;;4.50;4.20;;;26.40;99.90;;;;;;5053466;28;20198;-65
2022/05/16 12:26:11;;;;;;;4.30;4.00;;;26.40;99.90;;;;;;5036342;28;20171;-67
2022/05/16 12:28:37;;;;;;;4.32;4.13;;;26.20;99.90;;;;;;5054064;28;20189;-66
2022/05/16 12:31:05;;;;;;;5.45;5.05;;;26.10;99.90;;;;;;5053021;28;20194;-66
2022/05/16 12:33:32;;;;;;;5.05;4.75;;;25.50;99.90;;;;;;5053580;28;20413;-66
2022/05/16 12:35:58;;;;;;;4.55;4.18;;;25.10;99.90;;;;;;5052794;28;20175;-66
2022/05/16 12:38:27;;;;;;;4.00;3.80;;;24.60;99.90;;;;;;5047127;28;20748;-66
2022/05/16 12:41:39;;;;;;;4.25;4.00;;;24.40;99.90;;;;;;5053467;28;20748;-67
2022/05/16 12:44:23;;;;;;;4.53;4.22;;;24.30;99.90;;;;;;5050778;28;20182;-66
2022/05/16 12:47:18;;;;;;;4.50;4.20;;;24.20;99.90;;;;;;5049577;28;20216;-67
2022/05/16 12:50:08;;;;;;;4.63;4.32;;;24.10;99.90;;;;;;5043802;28;20186;-67
2022/05/16 12:53:14;;;;;;;5.32;5.00;;;23.90;99.90;;;;;;5052676;28;20277;-66
2022/05/16 12:56:14;;;;;;;4.80;4.50;;;23.80;99.90;;;;;;4968565;28;20191;-67
2022/05/16 12:59:03;;;;;;;5.80;5.40;;;23.80;99.90;;;;;;5036277;28;20684;-68
2022/05/16 13:01:45;;;;;;;4.90;4.57;;;23.80;99.90;;;;;;5053460;28;20179;-68
2022/05/16 13:04:43;;;;;;;4.47;4.10;;;23.90;99.90;;;;;;5053078;28;20270;-67
2022/05/16 13:07:32;;;;;;;5.53;5.03;;;23.90;99.90;;;;;;5045003;28;20251;-67
2022/05/16 13:10:22;;;;;;;4.82;4.53;;;24.00;99.90;;;;;;5052995;28;20178;-66
2022/05/16 13:13:17;;;;;;;4.60;4.30;;;23.90;99.90;;;;;;5053161;28;20236;-67
2022/05/16 13:15:55;;;;;;;4.97;4.63;;;24.00;99.90;;;;;;5050460;28;20175;-67
2022/05/16 13:18:28;;;;;;;4.85;4.55;;;24.10;99.90;;;;;;5052891;28;20447;-68
2022/05/16 13:21:01;;;;;;;5.03;4.63;;;23.90;99.90;;;;;;5052850;28;20170;-67
2022/05/16 13:23:27;;;;;;;4.70;4.40;;;24.00;99.90;;;;;;5052754;28;20205;-67
2022/05/16 13:31:35;;;;;;;4.22;4.03;;;24.30;99.90;;;;;;5053224;28;20305;-66
2022/05/16 13:34:02;;;;;;;5.13;4.63;;;24.30;99.90;;;;;;5052411;28;20187;-68
2022/05/16 13:36:28;;;;;;;4.78;4.47;;;24.40;99.90;;;;;;5051766;28;20221;-67
2022/05/16 13:39:11;;;;;;;5.55;5.15;;;24.50;99.90;;;;;;5052231;28;20703;-67
2022/05/16 13:41:38;;;;;;;5.30;4.90;;;24.30;99.90;;;;;;5051858;28;20325;-68
2022/05/16 13:44:04;;;;;;;4.80;4.50;;;24.40;99.90;;;;;;5052437;28;20203;-67
2022/05/16 13:46:33;;;;;;;5.55;5.18;;;24.50;99.90;;;;;;5052052;28;20175;-66